Little Rock Air Force Base
KLRF : now visible

Airfield :











YOU CAN JOIN US ON...

 
LOGIN :

Register | Disclaimer

   EN    FR    IT 

 









Legend :    VFR   Marginal VFR   IFR   Intensive IFR   Very Intensive IFR
Visi :
Ceiling :
>= 8 km
>= 3000ft
5 to 8 km
1000 to 3000 ft
1500m to 5 km
500 to 1000 ft
800 to 1500m
200 to 500 ft
< 800m
< 200 ft
Symbols :   Thunderstorms  Fog  Heavy snow  Heavy precipitations  Wind > 20 kt






- Airport Elevation : 311 ft


KLRF - Little Rock Air Force Base

CURRENT METAR :
  • 210256Z AUTO 07005KT 10SM CLR M02/M06 A3056 RMK AO2 SLP355 T10191061 52014 $

EXPIRED METARs :
  • 210156Z AUTO 06006KT 10SM CLR M01/M06 A3055 RMK AO2 SLP352 T10121064 $
  • 210056Z AUTO 09005KT 10SM CLR 00/M06 A3054 RMK AO2 SLP349 T00011063 $

TAF TAF KLRF
Valid from the 20 at 23:00 until the 22 at 05:00 UTC


202300Z 2023/2205 VRB06KT 9999 FEW250 QNH3055INS
BECMG 2101/2102 VRB06KT 9999 SCT080 QNH3055INS
BECMG 2110/2111 02006KT 9999 BKN030 QNH3053INS TX07/2121Z TNM04/2112Z



MET'MAP, your aeronautical weather chart ! - Copyright ORBIFLY December 2007 - Disclaimer

ORBIFLY MET'MAP TEAM :

Programming & Development : Alexandra Zaïnal
Concept & original design : Baudouin d'Aumeries
Assistance for programming : Marc-Olivier Méhu
Technical & hardware support : Manuel Goepfert

Contact : metmap@orbifly.com




SOURCES & CREDITS :

   NOAA       Earth
Advisory